Time;durP1;ratioP1;P1;durP2;ratioP2;P2;SDS_P1;SDS_P2;PMS_P1;PMS_P2;Temp;Humidity;BMP_temperature;BMP_pressure;BME280_temperature;BME280_humidity;BME280_pressure;Samples;Min_cycle;Max_cycle;Signal;HPM_P1;HPM_P2
2022/05/12 00:02:07;;;;;;;6.90;1.38;;;;;;;14.46;83.52;101142.59;7387749;19;20018;-69
2022/05/12 00:04:36;;;;;;;8.27;1.10;;;;;;;14.43;83.80;101142.91;7384702;19;20010;-69
2022/05/12 00:07:23;;;;;;;8.20;1.50;;;;;;;14.35;84.36;101147.38;7389599;19;20022;-69
2022/05/12 00:09:50;;;;;;;7.20;1.17;;;;;;;14.29;84.43;101151.53;7386497;19;20019;-69
2022/05/12 00:12:17;;;;;;;10.88;1.25;;;;;;;14.29;85.05;101153.34;7388368;19;20386;-69
2022/05/12 00:14:44;;;;;;;4.25;0.90;;;;;;;14.27;84.77;101156.19;7388261;19;20373;-68
2022/05/12 00:17:11;;;;;;;6.95;1.10;;;;;;;14.22;84.49;101161.13;7385810;19;20021;-69
2022/05/12 00:19:38;;;;;;;7.35;1.80;;;;;;;14.21;84.99;101167.44;7386811;19;20015;-68
2022/05/12 00:22:05;;;;;;;8.65;1.65;;;;;;;14.15;84.24;101170.75;7385536;19;20456;-68
2022/05/12 00:24:32;;;;;;;8.05;1.45;;;;;;;14.11;84.91;101174.72;7389096;19;20036;-68
2022/05/12 00:26:59;;;;;;;7.85;1.30;;;;;;;14.10;85.12;101171.25;7384818;19;20014;-68
2022/05/12 00:29:26;;;;;;;9.05;1.65;;;;;;;14.09;85.19;101177.53;7386689;19;20127;-68
2022/05/12 00:31:53;;;;;;;11.15;2.22;;;;;;;14.05;85.04;101176.22;7384995;19;20019;-67
2022/05/12 00:34:21;;;;;;;7.30;1.15;;;;;;;14.06;85.27;101171.75;7387598;19;20037;-68
2022/05/12 00:36:48;;;;;;;5.13;1.33;;;;;;;14.07;85.14;101174.22;7387647;19;20014;-68
2022/05/12 00:39:15;;;;;;;9.27;1.38;;;;;;;14.07;84.61;101176.03;7385392;19;20018;-69
2022/05/12 00:41:42;;;;;;;7.00;1.40;;;;;;;14.08;84.00;101189.09;7383969;19;20010;-68
2022/05/12 00:44:13;;;;;;;12.20;1.50;;;;;;;14.06;83.72;101193.75;7385966;19;20018;-70
2022/05/12 00:46:42;;;;;;;3.95;1.60;;;;;;;14.08;84.88;101190.91;7385952;19;20015;-68
2022/05/12 00:49:18;;;;;;;6.57;1.17;;;;;;;14.05;84.27;101184.16;7382559;19;20014;-67
2022/05/12 00:51:49;;;;;;;9.32;1.30;;;;;;;14.03;83.94;101188.78;7383653;19;20011;-67
2022/05/12 00:54:21;;;;;;;5.82;1.20;;;;;;;14.01;83.48;101189.94;7387535;19;20018;-67
2022/05/12 00:56:50;;;;;;;4.45;1.00;;;;;;;13.98;83.71;101195.56;7385047;19;20013;-68
2022/05/12 00:59:24;;;;;;;9.27;3.20;;;;;;;13.98;84.41;101184.97;7383552;19;20015;-68
2022/05/12 01:01:52;;;;;;;3.97;0.90;;;;;;;13.95;84.01;101185.31;7390694;19;20488;-68
2022/05/12 01:04:20;;;;;;;7.95;0.88;;;;;;;13.89;83.68;101192.09;7388581;19;20022;-68
2022/05/12 01:06:47;;;;;;;7.28;1.63;;;;;;;13.91;84.33;101200.69;7394530;19;20003;-67
2022/05/12 01:09:14;;;;;;;8.20;1.58;;;;;;;13.91;84.55;101186.63;7392765;19;20014;-69
2022/05/12 01:11:40;;;;;;;6.35;1.10;;;;;;;13.90;84.89;101196.41;7391005;19;20020;-69
2022/05/12 01:14:07;;;;;;;6.38;0.90;;;;;;;13.90;84.32;101198.22;7391610;19;20133;-69
2022/05/12 01:16:42;;;;;;;4.22;1.08;;;;;;;13.84;83.87;101191.75;7395368;19;20340;-70
2022/05/12 01:19:15;;;;;;;6.82;1.38;;;;;;;13.86;84.61;101196.91;7395200;19;20070;-68
2022/05/12 01:21:43;;;;;;;9.43;1.05;;;;;;;13.82;84.12;101192.91;7393088;19;20108;-68
2022/05/12 01:24:11;;;;;;;8.73;1.50;;;;;;;13.75;84.20;101189.28;7392143;19;20027;-68
2022/05/12 01:26:38;;;;;;;5.43;1.38;;;;;;;13.74;84.36;101192.91;7394609;19;20019;-68
2022/05/12 01:29:06;;;;;;;8.57;1.10;;;;;;;13.65;83.71;101202.66;7391841;19;20504;-67
2022/05/12 01:31:34;;;;;;;5.68;1.10;;;;;;;13.64;84.18;101203.63;7391489;19;20374;-69
2022/05/12 01:34:02;;;;;;;10.80;1.48;;;;;;;13.62;84.88;101202.97;7390106;19;20329;-68
2022/05/12 01:36:38;;;;;;;6.93;0.88;;;;;;;13.60;84.29;101205.78;7393674;19;20015;-68
2022/05/12 01:39:08;;;;;;;5.28;1.08;;;;;;;13.58;84.20;101212.22;7390041;19;20011;-67
2022/05/12 01:41:35;;;;;;;6.88;1.00;;;;;;;13.52;84.45;101218.16;7389595;19;20811;-68
2022/05/12 01:44:02;;;;;;;7.55;1.20;;;;;;;13.51;85.52;101213.88;7387909;19;20022;-68
2022/05/12 01:46:29;;;;;;;7.90;1.35;;;;;;;13.50;85.21;101206.94;7388497;19;20089;-68
2022/05/12 01:48:56;;;;;;;5.88;1.13;;;;;;;13.47;85.07;101208.06;7388484;19;20125;-68
2022/05/12 01:51:22;;;;;;;8.82;1.23;;;;;;;13.43;84.42;101219.97;7390794;19;20452;-68
2022/05/12 01:53:49;;;;;;;8.10;1.00;;;;;;;13.35;84.35;101219.13;7390769;19;20536;-68
2022/05/12 01:56:16;;;;;;;12.35;3.28;;;;;;;13.37;85.81;101222.41;7389291;19;20593;-67
2022/05/12 01:58:43;;;;;;;8.85;1.63;;;;;;;13.37;86.00;101228.53;7388313;19;20046;-67
2022/05/12 02:01:11;;;;;;;10.68;1.48;;;;;;;13.32;85.22;101227.34;7386520;19;20487;-69
2022/05/12 02:03:38;;;;;;;8.52;1.35;;;;;;;13.31;84.89;101223.06;7390326;19;20038;-69
2022/05/12 02:06:05;;;;;;;10.30;1.20;;;;;;;13.28;85.06;101227.69;7390600;19;20011;-68
2022/05/12 02:08:32;;;;;;;5.60;0.90;;;;;;;13.30;85.23;101218.78;7391575;19;20050;-67
2022/05/12 02:11:00;;;;;;;12.23;2.67;;;;;;;13.26;85.68;101216.44;7386731;19;20472;-68
2022/05/12 02:13:27;;;;;;;5.55;1.27;;;;;;;13.28;86.30;101218.94;7388219;19;20405;-67
2022/05/12 02:15:57;;;;;;;8.98;1.25;;;;;;;13.29;85.49;101223.22;7393868;19;20029;-68
2022/05/12 02:18:25;;;;;;;5.93;1.52;;;;;;;13.30;85.02;101224.06;7389226;19;20014;-68
2022/05/12 02:20:54;;;;;;;5.80;1.00;;;;;;;13.30;85.54;101229.34;7390518;19;20062;-68
2022/05/12 02:23:22;;;;;;;6.72;1.08;;;;;;;13.24;85.05;101236.09;7390484;19;20308;-69
2022/05/12 02:25:50;;;;;;;10.35;3.72;;;;;;;13.23;84.97;101237.06;7390931;19;20022;-68
2022/05/12 02:28:18;;;;;;;7.07;1.30;;;;;;;13.21;85.22;101231.94;7391910;19;20018;-68
2022/05/12 02:30:45;;;;;;;6.35;1.05;;;;;;;13.22;84.96;101235.41;7387940;19;20068;-68
2022/05/12 02:33:13;;;;;;;9.15;1.23;;;;;;;13.21;84.96;101228.47;7390955;19;20039;-68
2022/05/12 02:35:43;;;;;;;6.13;1.30;;;;;;;13.12;84.23;101234.72;7391908;19;20007;-68
2022/05/12 02:38:11;;;;;;;8.13;1.10;;;;;;;13.05;84.69;101231.88;7388244;19;20015;-68
2022/05/12 02:40:39;;;;;;;17.65;6.13;;;;;;;13.03;85.26;101238.28;7390622;19;20372;-68
2022/05/12 02:43:23;;;;;;;9.68;1.95;;;;;;;13.04;85.63;101240.78;7388062;19;20458;-67
2022/05/12 02:45:55;;;;;;;4.88;1.00;;;;;;;13.04;85.57;101247.88;7386073;19;20042;-69
2022/05/12 02:48:30;;;;;;;7.82;1.08;;;;;;;13.02;85.28;101244.56;7391783;19;20014;-68
2022/05/12 02:53:49;;;;;;;8.10;1.88;;;;;;;12.97;84.91;101244.19;7390947;19;20018;-68
2022/05/12 02:56:19;;;;;;;7.32;1.38;;;;;;;12.96;85.53;101248.66;7389820;19;20050;-68
2022/05/12 02:58:46;;;;;;;4.45;1.00;;;;;;;12.91;84.86;101243.00;7391274;19;20015;-68
2022/05/12 03:01:13;;;;;;;7.15;1.33;;;;;;;12.87;85.18;101249.59;7387025;19;20014;-68
2022/05/12 03:03:41;;;;;;;10.57;1.20;;;;;;;12.87;85.53;101249.59;7389237;19;20050;-68
2022/05/12 03:06:08;;;;;;;6.05;1.00;;;;;;;12.79;84.98;101250.41;7390307;19;20015;-68
2022/05/12 03:08:35;;;;;;;8.77;1.40;;;;;;;12.75;84.95;101249.03;7388008;19;20020;-69
2022/05/12 03:13:31;;;;;;;8.93;1.20;;;;;;;12.81;85.82;101263.44;7386534;19;20139;-69
2022/05/12 03:16:00;;;;;;;5.20;1.17;;;;;;;12.81;85.44;101261.63;7386215;19;20086;-69
2022/05/12 03:18:27;;;;;;;7.50;1.40;;;;;;;12.83;85.53;101264.94;7386250;19;20014;-69
2022/05/12 03:20:55;;;;;;;4.68;1.08;;;;;;;12.79;85.07;101257.50;7385804;19;20013;-69
2022/05/12 03:23:23;;;;;;;7.32;1.77;;;;;;;12.76;85.24;101263.06;7389836;19;20010;-69
2022/05/12 03:25:56;;;;;;;8.20;1.33;;;;;;;12.76;86.47;101271.81;7389730;19;20337;-69
2022/05/12 03:28:23;;;;;;;7.80;1.30;;;;;;;12.73;85.76;101261.56;7386862;19;20010;-68
2022/05/12 03:30:50;;;;;;;8.90;1.15;;;;;;;12.71;85.25;101262.69;7388607;19;20062;-68
2022/05/12 03:33:18;;;;;;;6.90;1.33;;;;;;;12.67;85.22;101264.00;7389623;19;20110;-67
2022/05/12 03:35:45;;;;;;;5.80;1.33;;;;;;;12.66;85.20;101254.41;7390008;19;20007;-68
2022/05/12 03:38:13;;;;;;;5.43;2.08;;;;;;;12.63;85.44;101254.75;7390234;19;20081;-67
2022/05/12 03:40:41;;;;;;;7.28;1.95;;;;;;;12.66;86.84;101259.69;7388687;19;20375;-67
2022/05/12 03:43:08;;;;;;;6.75;1.10;;;;;;;12.68;86.57;101255.94;7387247;19;20018;-68
2022/05/12 03:45:36;;;;;;;7.80;1.35;;;;;;;12.68;86.48;101261.22;7384993;19;20006;-68
2022/05/12 03:48:04;;;;;;;11.85;1.40;;;;;;;12.70;85.84;101259.22;7390479;19;20117;-69
2022/05/12 03:50:31;;;;;;;8.35;0.90;;;;;;;12.66;85.56;101265.81;7386409;19;20447;-70
2022/05/12 03:52:59;;;;;;;7.38;2.35;;;;;;;12.62;85.66;101268.94;7386778;19;20380;-67
2022/05/12 03:55:26;;;;;;;9.43;1.65;;;;;;;12.62;86.20;101272.41;7387135;19;20642;-68
2022/05/12 03:57:55;;;;;;;4.30;1.02;;;;;;;12.63;85.89;101267.94;7388378;19;20090;-68
2022/05/12 04:00:24;;;;;;;7.28;1.20;;;;;;;12.60;85.30;101277.00;7383244;19;20687;-69
2022/05/12 04:02:51;;;;;;;5.88;1.02;;;;;;;12.54;85.41;101276.81;7389955;19;20014;-67
2022/05/12 04:05:20;;;;;;;7.15;1.38;;;;;;;12.52;85.78;101270.84;7385968;19;20499;-70
2022/05/12 04:07:50;;;;;;;16.17;6.10;;;;;;;12.52;86.00;101276.13;7389076;19;20014;-69
2022/05/12 04:10:18;;;;;;;13.43;2.17;;;;;;;12.55;86.84;101279.25;7385082;19;20014;-70
2022/05/12 04:12:46;;;;;;;5.32;0.95;;;;;;;12.57;86.21;101274.66;7384621;19;20035;-68
2022/05/12 04:15:15;;;;;;;9.05;1.02;;;;;;;12.54;85.52;101275.00;7385276;19;20040;-69
2022/05/12 04:17:44;;;;;;;6.43;0.90;;;;;;;12.47;85.48;101291.59;7387304;19;20479;-67
2022/05/12 04:20:12;;;;;;;8.18;1.20;;;;;;;12.42;85.75;101292.03;7385033;19;20327;-68
2022/05/12 04:22:40;;;;;;;8.02;1.77;;;;;;;12.40;85.91;101286.91;7386855;19;20364;-68
2022/05/12 04:25:08;;;;;;;8.43;1.13;;;;;;;12.40;86.41;101286.06;7386344;19;20030;-67
2022/05/12 04:27:37;;;;;;;9.45;0.90;;;;;;;12.35;85.97;101285.72;7386484;19;20096;-70
2022/05/12 04:30:05;;;;;;;4.93;0.77;;;;;;;12.34;85.88;101287.53;7382584;19;20017;-67
2022/05/12 04:32:33;;;;;;;6.00;1.10;;;;;;;12.32;86.40;101292.13;7383795;19;20042;-69
2022/05/12 04:37:42;;;;;;;8.82;2.60;;;;;;;12.35;87.33;101276.00;7392606;19;20038;-68
2022/05/12 04:40:13;;;;;;;6.22;1.20;;;;;;;12.34;87.29;101286.72;7394600;19;20018;-68
2022/05/12 04:42:40;;;;;;;5.90;1.15;;;;;;;12.28;86.74;101285.50;7392058;19;20014;-68
2022/05/12 04:45:09;;;;;;;9.85;1.25;;;;;;;12.29;86.88;101291.63;7391820;19;20038;-68
2022/05/12 04:47:46;;;;;;;4.82;0.90;;;;;;;12.29;86.73;101302.97;7395427;19;20022;-68
2022/05/12 04:50:17;;;;;;;13.05;1.73;;;;;;;12.32;86.46;101300.06;7394386;19;20018;-69
2022/05/12 04:52:46;;;;;;;8.63;2.33;;;;;;;12.36;87.29;101304.03;7392322;19;20366;-69
2022/05/12 04:55:16;;;;;;;13.50;1.52;;;;;;;12.37;86.95;101304.88;7393322;19;20014;-68
2022/05/12 04:57:47;;;;;;;9.15;0.95;;;;;;;12.36;86.24;101309.31;7391358;19;20017;-68
2022/05/12 05:00:20;;;;;;;9.45;1.20;;;;;;;12.33;85.70;101312.28;7392808;19;20015;-68
2022/05/12 05:02:47;;;;;;;6.60;0.77;;;;;;;12.32;85.87;101310.59;7390914;19;20019;-69
2022/05/12 05:05:15;;;;;;;18.45;5.90;;;;;;;12.35;85.54;101306.81;7391526;19;20045;-68
2022/05/12 05:07:42;;;;;;;10.07;1.05;;;;;;;12.37;86.59;101321.53;7392722;19;20002;-69
2022/05/12 05:10:12;;;;;;;7.22;1.20;;;;;;;12.42;85.74;101326.34;7391296;19;20007;-68
2022/05/12 05:12:42;;;;;;;8.10;1.05;;;;;;;12.41;85.43;101328.16;7395273;19;20014;-68
2022/05/12 05:15:12;;;;;;;7.47;1.15;;;;;;;12.44;85.53;101334.97;7390004;19;20007;-68
2022/05/12 05:17:41;;;;;;;9.45;0.70;;;;;;;12.39;85.58;101338.03;7393355;19;20361;-67
2022/05/12 05:20:23;;;;;;;8.40;0.98;;;;;;;12.36;85.81;101332.22;7390645;19;20474;-67
2022/05/12 05:22:51;;;;;;;;;;;;;;;12.38;85.77;101343.47;7395731;19;20499;-70
2022/05/12 05:25:27;;;;;;;11.20;1.55;;;;;;;12.39;85.96;101343.31;7391705;19;20032;-69
2022/05/12 05:27:55;;;;;;;7.68;0.90;;;;;;;12.37;86.11;101341.81;7393182;19;20011;-68
2022/05/12 05:30:24;;;;;;;14.02;1.17;;;;;;;12.35;85.77;101341.97;7391078;19;20082;-67
2022/05/12 05:32:51;;;;;;;8.70;1.23;;;;;;;12.40;86.07;101344.97;7390798;19;20120;-67
2022/05/12 05:35:19;;;;;;;7.88;1.23;;;;;;;12.46;86.07;101342.72;7391677;19;20011;-67
2022/05/12 05:37:49;;;;;;;11.75;1.58;;;;;;;12.53;86.24;101341.97;7391788;19;20762;-67
2022/05/12 05:40:20;;;;;;;7.65;0.95;;;;;;;12.56;85.40;101351.38;7391005;19;20027;-68
2022/05/12 05:42:50;;;;;;;9.30;1.50;;;;;;;12.60;86.06;101347.44;7395267;19;20019;-69
2022/05/12 05:45:37;;;;;;;8.20;0.90;;;;;;;12.62;85.65;101345.47;7387982;19;20022;-69
2022/05/12 05:48:05;;;;;;;7.97;1.20;;;;;;;12.60;85.51;101345.63;7392583;19;20007;-68
2022/05/12 05:55:57;;;;;;;8.65;1.45;;;;;;;12.67;85.79;101357.25;7392439;19;20066;-68
2022/05/12 05:58:24;;;;;;;11.85;2.67;;;;;;;12.71;86.12;101373.59;7393812;19;20393;-69
2022/05/12 06:00:54;;;;;;;9.07;1.23;;;;;;;12.73;85.89;101372.47;7389096;19;20456;-69
2022/05/12 06:03:22;;;;;;;10.15;1.35;;;;;;;12.71;85.10;101379.72;7389584;19;20018;-69
2022/05/12 06:05:49;;;;;;;8.93;1.55;;;;;;;12.76;85.83;101387.16;7391608;19;20525;-69
2022/05/12 06:08:18;;;;;;;12.50;2.10;;;;;;;12.82;85.63;101384.75;7390728;19;20006;-68
2022/05/12 06:10:45;;;;;;;12.35;1.98;;;;;;;12.84;84.48;101396.00;7391173;19;20102;-69
2022/05/12 06:13:13;;;;;;;10.70;1.30;;;;;;;12.84;83.94;101398.66;7387612;19;20112;-69
2022/05/12 06:15:40;;;;;;;5.97;2.08;;;;;;;12.83;83.91;101401.44;7393064;19;20010;-68
2022/05/12 06:18:12;;;;;;;11.65;2.10;;;;;;;12.86;84.20;101414.31;7392269;19;20042;-68
2022/05/12 06:20:41;;;;;;;10.40;2.63;;;;;;;12.93;85.24;101404.81;7386305;19;20023;-67
2022/05/12 06:23:08;;;;;;;12.60;2.53;;;;;;;13.00;84.88;101418.25;7388004;19;20503;-70
2022/05/12 06:25:34;;;;;;;7.20;1.33;;;;;;;13.06;84.59;101412.31;7389021;19;20036;-67
2022/05/12 06:28:01;;;;;;;12.10;1.85;;;;;;;13.06;84.57;101423.72;7388037;19;20014;-68
2022/05/12 06:30:29;;;;;;;12.55;1.70;;;;;;;13.09;84.55;101417.31;7390568;19;20048;-69
2022/05/12 06:32:56;;;;;;;8.93;2.38;;;;;;;13.09;84.51;101425.25;7386145;19;20203;-67
2022/05/12 06:35:25;;;;;;;11.02;1.73;;;;;;;13.13;85.23;101422.16;7389771;19;20756;-69
2022/05/12 06:38:05;;;;;;;13.25;1.95;;;;;;;13.16;84.36;101419.19;7388194;19;20015;-68
2022/05/12 06:40:34;;;;;;;11.77;1.48;;;;;;;13.21;83.98;101421.38;7385355;19;20757;-69
2022/05/12 06:43:04;;;;;;;9.50;1.88;;;;;;;13.27;83.80;101411.03;7391491;19;20114;-67
2022/05/12 06:45:31;;;;;;;9.93;1.85;;;;;;;13.32;83.77;101415.84;7388362;19;20511;-69
2022/05/12 06:47:58;;;;;;;10.15;3.40;;;;;;;13.35;83.64;101420.84;7391853;19;20355;-68
2022/05/12 06:50:29;;;;;;;11.73;2.45;;;;;;;13.39;83.79;101421.34;7387563;19;20076;-68
2022/05/12 06:52:56;;;;;;;9.02;1.73;;;;;;;13.41;82.90;101422.03;7388298;19;20025;-67
2022/05/12 06:55:27;;;;;;;9.32;1.50;;;;;;;13.47;82.85;101427.50;7387727;19;20096;-69
2022/05/12 06:57:54;;;;;;;8.77;2.42;;;;;;;13.49;83.16;101440.56;7386293;19;20397;-69
2022/05/12 07:00:22;;;;;;;8.40;2.72;;;;;;;13.53;82.94;101431.31;7386068;19;19999;-68
2022/05/12 07:02:50;;;;;;;16.88;2.85;;;;;;;13.50;82.87;101444.88;7386375;19;20014;-69
2022/05/12 07:05:20;;;;;;;16.00;4.97;;;;;;;13.55;83.74;101440.78;7387250;19;20011;-67
2022/05/12 07:07:47;;;;;;;12.20;2.10;;;;;;;13.56;82.90;101442.41;7389891;19;20326;-69
2022/05/12 07:10:15;;;;;;;17.48;4.82;;;;;;;13.68;85.80;101449.09;7389501;19;20029;-68
2022/05/12 07:12:44;;;;;;;10.73;2.30;;;;;;;13.89;90.01;101439.94;7388459;19;20010;-68
2022/05/12 07:15:12;;;;;;;117.43;9.57;;;;;;;14.08;92.07;101447.59;7387471;19;20021;-68
2022/05/12 07:17:42;;;;;;;12.77;3.08;;;;;;;14.10;88.68;101448.28;7387604;19;20029;-69
2022/05/12 07:28:01;;;;;;;12.38;2.22;;;;;;;13.92;82.11;101452.84;7386233;19;20048;-68
2022/05/12 07:31:00;;;;;;;9.18;2.33;;;;;;;13.88;82.47;101451.50;7385121;19;20150;-68
2022/05/12 07:33:14;;;;;;;9.60;2.20;;;;;;;13.92;82.78;101456.31;7388335;19;20018;-68
2022/05/12 07:35:42;;;;;;;14.68;3.70;;;;;;;14.07;83.21;101453.88;7388482;19;20621;-69
2022/05/12 07:38:08;;;;;;;11.75;2.70;;;;;;;14.26;82.72;101458.09;7387669;19;20375;-69
2022/05/12 07:40:35;;;;;;;13.00;2.47;;;;;;;14.74;82.22;101463.50;7389952;19;20444;-69
2022/05/12 07:43:03;;;;;;;12.23;3.28;;;;;;;15.42;79.57;101463.16;7385185;19;20356;-70
2022/05/12 07:45:30;;;;;;;9.35;1.67;;;;;;;15.61;77.19;101460.16;7385272;19;20007;-69
2022/05/12 07:47:57;;;;;;;11.32;1.90;;;;;;;15.58;76.13;101468.47;7389201;19;20007;-69
2022/05/12 07:50:28;;;;;;;7.38;2.03;;;;;;;15.61;76.39;101462.00;7385750;19;20024;-69
2022/05/12 07:52:55;;;;;;;13.02;3.10;;;;;;;15.66;76.63;101464.97;7388907;19;20014;-71
2022/05/12 07:55:23;;;;;;;9.43;1.77;;;;;;;15.61;76.55;101465.47;7384760;19;20022;-69
2022/05/12 07:57:50;;;;;;;13.00;2.00;;;;;;;15.50;76.05;101471.09;7387830;19;20010;-70
2022/05/12 08:00:17;;;;;;;10.27;1.75;;;;;;;15.43;76.01;101470.13;7386916;19;20036;-68
2022/05/12 08:02:45;;;;;;;7.15;1.80;;;;;;;15.44;76.31;101469.13;7385588;19;20019;-69
2022/05/12 08:05:13;;;;;;;12.25;2.05;;;;;;;15.40;76.52;101471.28;7389263;19;20014;-69
2022/05/12 08:07:40;;;;;;;6.43;2.03;;;;;;;15.38;75.80;101467.16;7387442;19;20062;-70
2022/05/12 08:10:07;;;;;;;12.32;2.20;;;;;;;15.38;75.63;101468.00;7384339;19;20127;-69
2022/05/12 08:12:35;;;;;;;11.02;2.47;;;;;;;15.41;77.16;101466.81;7383784;19;20022;-69
2022/05/12 08:15:04;;;;;;;11.25;1.70;;;;;;;15.43;76.63;101467.47;7384130;19;20038;-70
2022/05/12 08:17:39;;;;;;;8.60;1.70;;;;;;;15.45;76.46;101462.00;7383691;19;20013;-69
2022/05/12 08:20:08;;;;;;;9.63;1.33;;;;;;;15.50;77.82;101463.13;7386422;19;20357;-69
2022/05/12 08:22:35;;;;;;;9.52;1.75;;;;;;;15.50;76.97;101459.66;7389597;19;20015;-67
2022/05/12 08:25:01;;;;;;;7.07;1.17;;;;;;;15.49;75.26;101465.97;7387845;19;20042;-68
2022/05/12 08:27:28;;;;;;;6.13;1.40;;;;;;;15.44;74.56;101466.47;7385979;19;20010;-69
2022/05/12 08:29:55;;;;;;;7.57;1.25;;;;;;;15.47;75.19;101474.09;7386733;19;20503;-69
2022/05/12 08:32:22;;;;;;;6.82;1.27;;;;;;;15.51;75.05;101475.44;7383604;19;20119;-69
2022/05/12 08:34:49;;;;;;;5.93;1.10;;;;;;;15.49;72.50;101472.09;7387954;19;20372;-71
2022/05/12 08:37:18;;;;;;;6.90;0.70;;;;;;;15.48;71.94;101475.75;7385742;19;20454;-68
2022/05/12 08:39:45;;;;;;;6.05;0.88;;;;;;;15.47;71.04;101475.91;7387360;19;20098;-68
2022/05/12 08:42:14;;;;;;;5.75;0.70;;;;;;;15.47;70.95;101482.06;7383747;19;20064;-69
2022/05/12 08:44:41;;;;;;;8.48;0.80;;;;;;;15.45;68.75;101480.56;7389244;19;20023;-69
2022/05/12 08:47:13;;;;;;;4.90;0.50;;;;;;;15.47;69.18;101475.91;7383670;19;20030;-69
2022/05/12 08:49:45;;;;;;;11.40;0.55;;;;;;;15.53;69.30;101477.94;7386116;19;20011;-68
2022/05/12 08:52:22;;;;;;;5.82;0.60;;;;;;;15.59;69.01;101477.28;7384604;19;20038;-68
2022/05/12 08:55:02;;;;;;;4.00;0.60;;;;;;;15.64;68.63;101474.94;7386566;19;20003;-69
2022/05/12 08:57:40;;;;;;;5.93;1.05;;;;;;;15.72;69.93;101478.38;7386097;19;20031;-70
2022/05/12 09:00:16;;;;;;;5.50;0.52;;;;;;;15.79;68.73;101475.88;7386905;19;20358;-69
2022/05/12 09:02:44;;;;;;;5.30;0.45;;;;;;;15.99;66.96;101477.16;7383381;19;20002;-70
2022/05/12 09:05:16;;;;;;;4.90;0.50;;;;;;;16.32;66.25;101484.94;7384855;19;20440;-70
2022/05/12 09:07:44;;;;;;;5.13;0.50;;;;;;;16.48;65.24;101475.06;7385396;19;20012;-69
2022/05/12 09:10:26;;;;;;;4.53;0.55;;;;;;;16.68;65.50;101473.63;7382237;19;20026;-68
2022/05/12 09:13:10;;;;;;;5.22;0.50;;;;;;;16.94;62.95;101469.78;7383174;19;20434;-70
2022/05/12 09:15:41;;;;;;;4.07;0.50;;;;;;;17.12;59.92;101478.28;7387697;19;20010;-68
2022/05/12 09:18:18;;;;;;;3.28;0.35;;;;;;;17.14;60.77;101460.31;7381546;19;20014;-70
2022/05/12 09:20:45;;;;;;;5.03;0.40;;;;;;;17.16;60.09;101474.28;7386346;19;20018;-69
2022/05/12 09:23:12;;;;;;;4.43;0.40;;;;;;;17.21;58.75;101471.06;7395078;19;20456;-68
2022/05/12 09:25:43;;;;;;;5.88;0.50;;;;;;;17.14;58.93;101478.09;7390075;19;20459;-68
2022/05/12 09:31:15;;;;;;;7.85;0.70;;;;;;;17.25;60.82;101472.34;7392390;19;20010;-69
2022/05/12 09:33:45;;;;;;;3.67;0.40;;;;;;;17.25;59.45;101467.03;7390049;19;20025;-70
2022/05/12 09:36:25;;;;;;;4.85;0.40;;;;;;;17.35;58.94;101464.94;7391378;19;20451;-69
2022/05/12 09:38:55;;;;;;;4.28;0.60;;;;;;;17.44;57.21;101464.69;7395708;19;20083;-69
2022/05/12 09:41:37;;;;;;;7.30;0.50;;;;;;;17.43;57.17;101467.50;7389483;19;20030;-70
2022/05/12 09:44:19;;;;;;;3.33;0.38;;;;;;;17.40;55.82;101468.72;7391422;19;20015;-68
2022/05/12 09:46:58;;;;;;;5.00;0.30;;;;;;;17.40;54.47;101470.53;7392119;19;20007;-68
2022/05/12 09:49:31;;;;;;;4.65;0.40;;;;;;;17.45;54.96;101470.84;7391194;19;20010;-69
2022/05/12 09:52:24;;;;;;;3.08;0.30;;;;;;;17.50;52.19;101461.28;7394290;19;20045;-69
2022/05/12 09:55:14;;;;;;;4.35;0.40;;;;;;;17.60;51.87;101457.56;7393355;19;20014;-69
2022/05/12 09:57:52;;;;;;;3.38;0.35;;;;;;;17.72;52.75;101459.59;7387738;19;20014;-68
2022/05/12 10:00:30;;;;;;;2.72;0.30;;;;;;;17.81;53.04;101455.81;7391229;19;20010;-68
2022/05/12 10:08:16;;;;;;;3.30;0.28;;;;;;;18.13;50.64;101441.28;7390875;19;20034;-69
2022/05/12 10:10:47;;;;;;;5.85;0.65;;;;;;;18.15;48.99;101451.72;7388520;19;20030;-69
2022/05/12 10:13:24;;;;;;;6.53;0.40;;;;;;;18.17;49.67;101460.38;7390088;19;20014;-69
2022/05/12 10:15:54;;;;;;;3.83;0.30;;;;;;;18.19;49.24;101461.81;7391859;19;20340;-69
2022/05/12 10:18:38;;;;;;;2.30;0.30;;;;;;;18.12;49.07;101463.59;7389964;19;20010;-68
2022/05/12 10:21:15;;;;;;;4.25;0.20;;;;;;;18.01;50.79;101463.25;7393064;19;20002;-69
2022/05/12 10:24:02;;;;;;;5.40;0.50;;;;;;;17.98;50.01;101453.78;7391918;19;20034;-72
2022/05/12 10:26:41;;;;;;;8.45;0.43;;;;;;;17.96;49.53;101455.81;7392671;19;20066;-70
2022/05/12 10:29:25;;;;;;;2.97;0.40;;;;;;;17.93;51.45;101457.00;7391233;19;20021;-69
2022/05/12 10:32:09;;;;;;;6.60;0.40;;;;;;;17.88;50.36;101456.72;7389490;19;20011;-69
2022/05/12 10:34:55;;;;;;;6.60;0.32;;;;;;;17.97;50.94;101454.81;7387168;19;20007;-68
2022/05/12 10:37:39;;;;;;;3.88;0.30;;;;;;;18.08;48.45;101450.84;7389690;19;20007;-69
2022/05/12 10:40:23;;;;;;;6.32;0.30;;;;;;;18.08;48.76;101456.97;7391061;19;20038;-69
2022/05/12 10:42:59;;;;;;;4.55;0.80;;;;;;;18.06;47.94;101459.00;7389368;19;20015;-68
2022/05/12 10:45:44;;;;;;;1.33;0.20;;;;;;;18.02;48.60;101456.91;7390231;19;20022;-70
2022/05/12 10:48:28;;;;;;;3.70;0.20;;;;;;;17.98;48.96;101458.31;7393721;19;20023;-68
2022/05/12 10:51:02;;;;;;;5.88;0.40;;;;;;;17.88;47.00;101461.22;7390516;19;20014;-69
2022/05/12 10:53:39;;;;;;;1.77;0.13;;;;;;;17.77;45.91;101454.56;7386533;19;20065;-69
2022/05/12 10:56:17;;;;;;;3.85;0.20;;;;;;;17.77;46.85;101459.88;7387522;19;20027;-70
2022/05/12 10:58:54;;;;;;;2.28;0.35;;;;;;;17.73;47.23;101463.88;7387388;19;20034;-69
2022/05/12 11:01:27;;;;;;;1.10;0.20;;;;;;;17.71;47.15;101462.44;7387230;19;20011;-68
2022/05/12 11:04:03;;;;;;;3.30;0.77;;;;;;;17.68;47.27;101455.63;7387650;19;20010;-70
2022/05/12 11:06:39;;;;;;;3.92;0.30;;;;;;;17.69;47.19;101445.81;7390248;19;20374;-70
2022/05/12 11:09:13;;;;;;;4.07;0.35;;;;;;;17.74;49.10;101451.41;7388190;19;20015;-67
2022/05/12 11:11:45;;;;;;;2.42;0.30;;;;;;;17.81;48.13;101450.50;7387356;19;20034;-69
2022/05/12 11:14:17;;;;;;;5.25;0.40;;;;;;;17.84;47.47;101443.97;7386100;19;20022;-69
2022/05/12 11:16:58;;;;;;;5.20;0.30;;;;;;;17.88;48.33;101447.91;7388644;19;20034;-70
2022/05/12 11:19:26;;;;;;;1.75;0.20;;;;;;;17.95;48.85;101448.81;7388879;19;20038;-68
2022/05/12 11:22:11;;;;;;;3.20;0.32;;;;;;;18.03;48.27;101447.91;7387823;19;20010;-69
2022/05/12 11:24:57;;;;;;;3.17;0.40;;;;;;;18.05;48.69;101446.69;7388543;19;20011;-69
2022/05/12 11:27:44;;;;;;;4.53;0.38;;;;;;;18.02;48.96;101440.94;7388266;19;20154;-69
2022/05/12 11:30:27;;;;;;;3.03;0.30;;;;;;;18.03;48.33;101446.03;7389700;19;20081;-68
2022/05/12 11:33:10;;;;;;;1.85;0.30;;;;;;;18.00;49.32;101441.09;7386932;19;20010;-69
2022/05/12 11:35:43;;;;;;;;;;;;;;;17.92;48.82;101439.38;7388926;19;20013;-69
2022/05/12 11:38:39;;;;;;;4.35;0.43;;;;;;;17.87;51.47;101446.28;7391662;19;19914;-68
2022/05/12 11:41:08;;;;;;;7.28;0.32;;;;;;;17.88;51.96;101450.56;7390286;19;20451;-69
2022/05/12 11:46:29;;;;;;;2.80;0.20;;;;;;;17.92;49.83;101449.22;7384692;19;20336;-68
2022/05/12 11:49:25;;;;;;;2.05;0.22;;;;;;;17.92;49.05;101447.38;7386154;19;20022;-69
2022/05/12 11:51:52;;;;;;;4.93;0.35;;;;;;;17.86;47.97;101447.28;7384813;19;20070;-68
2022/05/12 11:54:36;;;;;;;4.78;0.30;;;;;;;17.80;48.49;101442.69;7387116;19;20047;-70
2022/05/12 11:57:19;;;;;;;4.05;0.30;;;;;;;17.78;50.26;101437.53;7386366;19;20547;-69
2022/05/12 11:59:48;;;;;;;;;;;;;;;17.81;50.22;101452.34;7385807;19;20143;-69
2022/05/12 12:02:33;;;;;;;4.25;0.38;;;;;;;17.80;49.39;101445.34;7387330;19;20312;-69
2022/05/12 12:05:06;;;;;;;3.53;0.32;;;;;;;17.82;49.75;101454.81;7389298;19;20523;-68
2022/05/12 12:07:54;;;;;;;2.40;0.30;;;;;;;17.85;48.20;101443.78;7385022;19;20014;-70
2022/05/12 12:10:23;;;;;;;1.85;0.40;;;;;;;17.97;49.04;101438.00;7385805;19;20011;-69
2022/05/12 12:13:01;;;;;;;1.98;0.30;;;;;;;18.03;49.30;101439.94;7384153;19;20100;-67
2022/05/12 12:15:37;;;;;;;2.83;0.40;;;;;;;18.09;49.38;101441.81;7387175;19;20027;-69